createdAt,value
2018-08-03T00:04:04.853Z,99.90
2018-08-03T00:07:09.248Z,99.90
2018-08-03T00:10:13.567Z,99.90
2018-08-03T00:13:17.981Z,99.90
2018-08-03T00:16:22.274Z,99.90
2018-08-03T00:19:27.761Z,99.90
2018-08-03T00:22:32.082Z,99.90
2018-08-03T00:25:36.394Z,99.90
2018-08-03T00:28:40.703Z,99.90
2018-08-03T00:31:45.037Z,99.90
2018-08-03T00:34:49.321Z,99.90
2018-08-03T00:37:53.659Z,99.90
2018-08-03T00:40:57.926Z,99.90
2018-08-03T00:44:02.193Z,99.90
2018-08-03T00:47:06.497Z,99.90
2018-08-03T00:50:10.825Z,99.90
2018-08-03T00:53:15.171Z,99.90
2018-08-03T00:56:19.479Z,99.90
2018-08-03T01:02:27.908Z,99.90
2018-08-03T01:05:32.186Z,99.90
2018-08-03T01:08:36.547Z,99.90
2018-08-03T01:11:40.768Z,99.90
2018-08-03T01:14:45.046Z,99.90
2018-08-03T01:17:49.411Z,99.90
2018-08-03T01:23:57.962Z,99.90
2018-08-03T01:27:02.253Z,99.90
2018-08-03T01:30:07.371Z,99.90
2018-08-03T01:33:11.737Z,99.90
2018-08-03T01:36:16.002Z,99.90
2018-08-03T01:39:20.361Z,99.90
2018-08-03T01:42:24.633Z,99.90
2018-08-03T01:45:28.905Z,99.90
2018-08-03T01:48:33.209Z,99.90
2018-08-03T01:51:37.497Z,99.90
2018-08-03T01:54:41.778Z,99.90
2018-08-03T01:57:46.076Z,99.90
2018-08-03T02:00:50.398Z,99.90
2018-08-03T02:03:54.823Z,99.90
2018-08-03T02:06:59.159Z,99.90
2018-08-03T02:10:03.458Z,99.90
2018-08-03T02:13:07.972Z,99.90
2018-08-03T02:16:12.321Z,99.90
2018-08-03T02:19:16.662Z,99.90
2018-08-03T02:22:20.977Z,99.90
2018-08-03T02:25:25.230Z,99.90
2018-08-03T02:28:29.489Z,99.90
2018-08-03T02:34:37.812Z,99.90
2018-08-03T02:37:42.171Z,99.90
2018-08-03T02:40:46.556Z,99.90
2018-08-03T02:43:50.894Z,99.90
2018-08-03T02:46:55.316Z,99.90
2018-08-03T02:49:59.735Z,99.90
2018-08-03T02:53:04.057Z,99.90
2018-08-03T02:56:08.378Z,99.90
2018-08-03T02:59:12.708Z,99.90
2018-08-03T03:02:17.012Z,99.90
2018-08-03T03:05:21.338Z,99.90
2018-08-03T03:08:25.667Z,99.90
2018-08-03T03:11:29.929Z,99.90
2018-08-03T03:14:34.165Z,99.90
2018-08-03T03:17:38.555Z,99.90
2018-08-03T03:20:42.810Z,99.90
2018-08-03T03:23:47.188Z,99.90
2018-08-03T03:26:51.448Z,99.90
2018-08-03T03:29:55.677Z,99.90
2018-08-03T03:33:00.040Z,99.90
2018-08-03T03:36:04.368Z,99.90
2018-08-03T03:39:12.251Z,99.90
2018-08-03T03:42:16.581Z,99.90
2018-08-03T03:45:20.912Z,99.90
2018-08-03T03:48:25.232Z,99.90
2018-08-03T03:51:29.533Z,99.90
2018-08-03T03:54:33.856Z,99.90
2018-08-03T03:57:38.278Z,99.90
2018-08-03T04:00:42.595Z,99.90
2018-08-03T04:03:46.960Z,99.90
2018-08-03T04:06:51.254Z,99.90
2018-08-03T04:09:55.664Z,99.90
2018-08-03T04:13:00.093Z,99.90
2018-08-03T04:16:04.556Z,99.90
2018-08-03T04:19:08.974Z,99.90
2018-08-03T04:22:13.647Z,99.90
2018-08-03T04:25:17.905Z,99.90
2018-08-03T04:28:22.215Z,99.90
2018-08-03T04:31:26.567Z,99.90
2018-08-03T04:34:30.828Z,99.90
2018-08-03T04:37:35.175Z,99.90
2018-08-03T04:40:39.503Z,99.90
2018-08-03T04:43:43.851Z,99.90
2018-08-03T04:46:48.138Z,99.90
2018-08-03T04:49:52.485Z,99.90
2018-08-03T04:52:56.803Z,99.90
2018-08-03T04:56:01.544Z,99.90
2018-08-03T04:59:05.860Z,99.90
2018-08-03T05:02:10.579Z,99.90
2018-08-03T05:05:14.918Z,99.90
2018-08-03T05:08:19.251Z,99.90
2018-08-03T05:11:23.541Z,99.90
2018-08-03T05:14:27.888Z,99.90
2018-08-03T05:17:32.177Z,99.90
2018-08-03T05:20:36.534Z,99.90
2018-08-03T05:23:40.850Z,99.90
2018-08-03T05:26:45.158Z,99.90
2018-08-03T05:29:49.458Z,99.90
2018-08-03T05:32:53.880Z,99.90
2018-08-03T05:35:58.240Z,99.90
2018-08-03T05:39:02.913Z,99.90
2018-08-03T05:42:07.252Z,99.90
2018-08-03T05:45:11.584Z,99.90
2018-08-03T05:51:19.979Z,99.90
2018-08-03T05:54:24.223Z,99.90
2018-08-03T05:57:28.560Z,99.90
2018-08-03T06:00:32.979Z,99.90
2018-08-03T06:03:37.221Z,99.90
2018-08-03T06:06:41.509Z,99.90
2018-08-03T06:09:45.808Z,99.90
2018-08-03T06:12:52.097Z,99.90
2018-08-03T06:15:56.419Z,99.90
2018-08-03T06:19:00.739Z,99.90
2018-08-03T06:22:05.089Z,99.90
2018-08-03T06:25:10.037Z,99.90
2018-08-03T06:28:14.319Z,99.90
2018-08-03T06:31:18.646Z,99.90
2018-08-03T06:34:23.049Z,99.90
2018-08-03T06:37:27.397Z,99.90
2018-08-03T06:40:31.686Z,99.90
2018-08-03T06:46:40.222Z,99.90
2018-08-03T06:49:44.548Z,99.90
2018-08-03T06:52:48.855Z,99.90
2018-08-03T06:55:53.201Z,99.90
2018-08-03T06:58:57.601Z,99.90
2018-08-03T07:02:01.922Z,99.90
2018-08-03T07:05:06.302Z,99.90
2018-08-03T07:08:10.628Z,99.90
2018-08-03T07:11:14.863Z,99.90
2018-08-03T07:14:19.238Z,99.90
2018-08-03T07:17:30.026Z,99.90
2018-08-03T07:20:34.349Z,99.90
2018-08-03T07:23:38.728Z,99.90
2018-08-03T07:26:43.068Z,99.90
2018-08-03T07:29:47.306Z,99.40
2018-08-03T07:32:51.655Z,98.80
2018-08-03T07:35:56.003Z,98.50
2018-08-03T07:39:00.333Z,98.70
2018-08-03T07:42:04.616Z,99.10
2018-08-03T07:45:08.926Z,98.70
2018-08-03T07:48:13.254Z,98.80
2018-08-03T07:51:17.589Z,98.10
2018-08-03T07:54:21.881Z,98.20
2018-08-03T07:57:26.244Z,97.60
2018-08-03T08:00:30.702Z,97.50
2018-08-03T08:03:34.968Z,97.50
2018-08-03T08:06:39.400Z,97.60
2018-08-03T08:09:43.788Z,97.40
2018-08-03T08:12:50.154Z,99.20
2018-08-03T08:15:54.527Z,99.30
2018-08-03T08:18:58.948Z,99.30
2018-08-03T08:22:03.340Z,99.20
2018-08-03T08:25:07.956Z,99.30
2018-08-03T08:28:12.383Z,98.20
2018-08-03T08:31:16.672Z,98.20
2018-08-03T08:34:21.054Z,97.90
2018-08-03T08:37:25.499Z,97.80
2018-08-03T08:40:29.995Z,97.80
2018-08-03T08:43:34.351Z,97.30
2018-08-03T08:46:38.633Z,96.60
2018-08-03T08:49:42.913Z,96.60
2018-08-03T08:52:47.234Z,96.00
2018-08-03T08:55:51.552Z,95.20
2018-08-03T08:58:55.817Z,94.60
2018-08-03T09:02:00.715Z,94.70
2018-08-03T09:05:05.297Z,94.50
2018-08-03T09:08:09.691Z,94.30
2018-08-03T09:11:13.958Z,93.90
2018-08-03T09:14:18.562Z,93.10
2018-08-03T09:17:22.975Z,93.00
2018-08-03T09:20:27.314Z,92.00
2018-08-03T09:23:31.698Z,92.10
2018-08-03T09:26:36.472Z,91.70
2018-08-03T09:29:40.821Z,91.30
2018-08-03T09:32:45.236Z,90.80
2018-08-03T09:35:49.710Z,90.80
2018-08-03T09:38:54.111Z,91.20
2018-08-03T09:41:58.365Z,91.00
2018-08-03T09:45:02.749Z,90.70
2018-08-03T09:48:07.080Z,90.80
2018-08-03T09:51:11.396Z,90.60
2018-08-03T09:54:15.654Z,90.40
2018-08-03T09:57:19.923Z,89.30
2018-08-03T10:00:29.428Z,88.70
2018-08-03T10:03:33.735Z,89.40
2018-08-03T10:06:38.109Z,88.90
2018-08-03T10:09:42.372Z,87.70
2018-08-03T10:12:46.681Z,87.40
2018-08-03T10:15:50.922Z,87.60
2018-08-03T10:18:55.237Z,87.50
2018-08-03T10:21:59.583Z,86.90
2018-08-03T10:25:03.924Z,86.00
2018-08-03T10:28:08.180Z,85.70
2018-08-03T10:31:12.710Z,84.80
2018-08-03T10:34:17.046Z,85.50
2018-08-03T10:37:21.406Z,86.40
2018-08-03T10:40:25.800Z,84.40
2018-08-03T10:43:30.169Z,83.70
2018-08-03T10:46:34.577Z,82.90
2018-08-03T10:49:38.985Z,83.40
2018-08-03T10:52:43.341Z,82.30
2018-08-03T10:55:47.626Z,82.60
2018-08-03T10:58:52.397Z,83.10
2018-08-03T11:01:56.782Z,83.00
2018-08-03T11:05:01.077Z,81.30
2018-08-03T11:08:05.393Z,81.00
2018-08-03T11:11:09.698Z,81.20
2018-08-03T11:14:14.035Z,79.30
2018-08-03T11:17:18.464Z,79.60
2018-08-03T11:20:22.760Z,79.10
2018-08-03T11:23:27.086Z,78.70
2018-08-03T11:26:31.501Z,78.70
2018-08-03T11:29:35.878Z,77.50
2018-08-03T11:32:40.228Z,77.50
2018-08-03T11:35:44.968Z,77.80
2018-08-03T11:38:49.291Z,78.50
2018-08-03T11:41:53.618Z,75.30
2018-08-03T11:44:57.954Z,74.60
2018-08-03T11:48:02.272Z,75.40
2018-08-03T11:51:06.836Z,73.70
2018-08-03T11:54:11.490Z,73.30
2018-08-03T11:57:15.817Z,72.50
2018-08-03T12:00:20.520Z,71.60
2018-08-03T12:03:24.876Z,69.30
2018-08-03T12:06:29.289Z,68.70
2018-08-03T12:09:33.517Z,70.40
2018-08-03T12:12:37.925Z,67.90
2018-08-03T12:15:42.184Z,68.70
2018-08-03T12:18:46.513Z,68.90
2018-08-03T12:21:51.170Z,69.50
2018-08-03T12:24:55.533Z,69.90
2018-08-03T12:27:59.799Z,70.70
2018-08-03T12:31:04.192Z,69.80
2018-08-03T12:34:08.614Z,69.50
2018-08-03T12:37:12.941Z,71.00
2018-08-03T12:40:17.341Z,70.30
2018-08-03T12:43:21.733Z,70.20
2018-08-03T12:46:25.979Z,69.30
2018-08-03T12:49:31.237Z,69.80
2018-08-03T12:52:35.855Z,69.60
2018-08-03T12:55:40.177Z,70.30
2018-08-03T12:58:44.469Z,70.70
2018-08-03T13:01:48.801Z,70.00
2018-08-03T13:04:53.169Z,69.60
2018-08-03T13:07:57.639Z,69.30
2018-08-03T13:11:01.869Z,70.00
2018-08-03T13:14:06.229Z,69.50
2018-08-03T13:17:10.592Z,67.20
2018-08-03T13:20:14.907Z,67.40
2018-08-03T13:23:19.213Z,66.20
2018-08-03T13:26:23.911Z,65.10
2018-08-03T13:29:28.239Z,64.60
2018-08-03T13:32:32.464Z,63.20
2018-08-03T13:35:36.893Z,63.70
2018-08-03T13:38:41.228Z,63.90
2018-08-03T13:44:49.800Z,60.60
2018-08-03T13:47:54.127Z,62.60
2018-08-03T13:50:58.419Z,61.60
2018-08-03T13:54:02.776Z,61.70
2018-08-03T13:57:07.184Z,60.30
2018-08-03T14:00:13.184Z,60.00
2018-08-03T14:03:17.522Z,60.00
2018-08-03T14:06:21.857Z,60.30
2018-08-03T14:09:26.184Z,59.80
2018-08-03T14:12:31.542Z,59.60
2018-08-03T14:15:36.698Z,57.80
2018-08-03T14:18:40.961Z,58.60
2018-08-03T14:21:45.307Z,60.00
2018-08-03T14:24:49.567Z,59.50
2018-08-03T14:27:53.968Z,60.40
2018-08-03T14:30:58.402Z,60.00
2018-08-03T14:34:02.839Z,60.20
2018-08-03T14:37:07.227Z,60.00
2018-08-03T14:40:11.549Z,60.30
2018-08-03T14:43:15.859Z,60.50
2018-08-03T14:46:20.158Z,60.80
2018-08-03T14:49:24.859Z,60.70
2018-08-03T14:52:29.212Z,60.80
2018-08-03T14:55:33.570Z,61.40
2018-08-03T14:58:37.905Z,61.20
2018-08-03T15:01:42.201Z,62.30
2018-08-03T15:04:46.505Z,62.40
2018-08-03T15:07:50.863Z,61.90
2018-08-03T15:10:55.260Z,64.20
2018-08-03T15:13:59.671Z,63.80
2018-08-03T15:17:03.980Z,63.30
2018-08-03T15:20:09.422Z,63.50
2018-08-03T15:23:13.763Z,64.70
2018-08-03T15:26:18.025Z,66.60
2018-08-03T15:29:22.381Z,65.50
2018-08-03T15:32:26.708Z,64.70
2018-08-03T15:35:31.152Z,63.70
2018-08-03T15:38:35.471Z,64.00
2018-08-03T15:41:40.638Z,64.60
2018-08-03T15:44:44.905Z,65.00
2018-08-03T15:47:49.251Z,63.40
2018-08-03T15:50:53.564Z,63.80
2018-08-03T15:53:57.893Z,63.70
2018-08-03T15:57:02.196Z,62.30
2018-08-03T16:00:08.473Z,61.70
2018-08-03T16:03:12.687Z,63.50
2018-08-03T16:06:16.994Z,63.90
2018-08-03T16:09:21.300Z,63.80
2018-08-03T16:12:25.635Z,63.30
2018-08-03T16:15:30.289Z,63.10
2018-08-03T16:18:34.598Z,63.80
2018-08-03T16:21:38.912Z,63.60
2018-08-03T16:24:43.254Z,63.30
2018-08-03T16:27:47.521Z,62.30
2018-08-03T16:30:51.856Z,61.70
2018-08-03T16:33:56.327Z,61.20
2018-08-03T16:37:00.703Z,62.00
2018-08-03T16:43:09.574Z,60.90
2018-08-03T16:46:13.970Z,60.40
2018-08-03T16:49:18.224Z,61.20
2018-08-03T16:52:22.597Z,60.90
2018-08-03T16:55:26.960Z,61.20
2018-08-03T16:58:31.272Z,59.90
2018-08-03T17:01:35.576Z,59.90
2018-08-03T17:04:39.900Z,60.20
2018-08-03T17:07:44.414Z,61.30
2018-08-03T17:10:48.677Z,60.90
2018-08-03T17:13:53.064Z,60.80
2018-08-03T17:16:57.328Z,60.90
2018-08-03T17:20:01.605Z,61.70
2018-08-03T17:23:05.955Z,62.60
2018-08-03T17:26:10.306Z,63.60
2018-08-03T17:32:18.710Z,67.40
2018-08-03T17:35:29.766Z,70.00
2018-08-03T17:38:34.200Z,72.30
2018-08-03T17:41:38.774Z,75.10
2018-08-03T17:44:44.370Z,77.40
2018-08-03T17:47:50.035Z,78.70
2018-08-03T17:50:55.510Z,80.20
2018-08-03T17:54:00.977Z,81.60
2018-08-03T17:57:06.311Z,83.10
2018-08-03T18:00:11.096Z,85.00
2018-08-03T18:03:15.526Z,85.90
2018-08-03T18:06:20.179Z,86.90
2018-08-03T18:09:25.653Z,88.00
2018-08-03T18:12:30.183Z,88.30
2018-08-03T18:15:34.512Z,89.30
2018-08-03T18:18:38.970Z,90.10
2018-08-03T18:21:43.383Z,89.80
2018-08-03T18:24:47.814Z,90.00
2018-08-03T18:27:52.108Z,90.60
2018-08-03T18:31:03.292Z,91.40
2018-08-03T18:34:07.701Z,92.00
2018-08-03T18:37:12.014Z,92.50
2018-08-03T18:40:16.366Z,92.60
2018-08-03T18:43:21.047Z,93.30
2018-08-03T18:46:25.390Z,93.80
2018-08-03T18:49:29.752Z,94.30
2018-08-03T18:52:34.096Z,94.80
2018-08-03T18:55:38.434Z,95.30
2018-08-03T18:58:42.752Z,95.60
2018-08-03T19:01:47.187Z,95.70
2018-08-03T19:04:51.514Z,95.90
2018-08-03T19:07:55.941Z,96.10
2018-08-03T19:11:00.208Z,96.50
2018-08-03T19:14:04.504Z,96.50
2018-08-03T19:17:08.865Z,96.60
2018-08-03T19:20:13.133Z,97.30
2018-08-03T19:23:17.549Z,97.80
2018-08-03T19:26:21.953Z,98.20
2018-08-03T19:29:26.370Z,98.80
2018-08-03T19:32:30.677Z,99.20
2018-08-03T19:35:35.020Z,99.60
2018-08-03T19:38:39.444Z,99.90
2018-08-03T19:41:43.884Z,99.90
2018-08-03T19:44:48.266Z,99.90
2018-08-03T19:47:52.605Z,99.90
2018-08-03T19:50:56.929Z,99.90
2018-08-03T19:54:01.371Z,99.90
2018-08-03T19:57:05.790Z,99.90
2018-08-03T20:00:12.376Z,99.90
2018-08-03T20:03:16.869Z,99.90
2018-08-03T20:06:21.601Z,99.90
2018-08-03T20:09:26.045Z,99.90
2018-08-03T20:12:30.429Z,99.90
2018-08-03T20:15:34.965Z,99.90
2018-08-03T20:18:39.514Z,99.90
2018-08-03T20:21:44.013Z,99.90
2018-08-03T20:24:48.346Z,99.90
2018-08-03T20:27:53.393Z,99.90
2018-08-03T20:30:57.788Z,99.90
2018-08-03T20:34:02.113Z,99.90
2018-08-03T20:37:06.684Z,99.90
2018-08-03T20:40:11.489Z,99.90
2018-08-03T20:43:15.883Z,99.90
2018-08-03T20:46:20.229Z,99.90
2018-08-03T20:49:24.911Z,99.90
2018-08-03T20:52:29.255Z,99.90
2018-08-03T20:55:33.677Z,99.90
2018-08-03T20:58:37.989Z,99.90
2018-08-03T21:01:42.432Z,99.90
2018-08-03T21:04:46.775Z,99.90
2018-08-03T21:07:51.280Z,99.90
2018-08-03T21:10:56.617Z,99.90
2018-08-03T21:14:00.896Z,99.90
2018-08-03T21:20:09.926Z,99.90
2018-08-03T21:23:14.293Z,99.90
2018-08-03T21:26:18.730Z,99.90
2018-08-03T21:29:23.241Z,99.90
2018-08-03T21:32:27.699Z,99.90
2018-08-03T21:35:32.062Z,99.90
2018-08-03T21:38:36.403Z,99.90
2018-08-03T21:41:40.663Z,99.90
2018-08-03T21:44:44.998Z,99.90
2018-08-03T21:47:49.316Z,99.90
2018-08-03T21:50:53.849Z,99.90
2018-08-03T21:53:58.101Z,99.90
2018-08-03T21:57:02.508Z,99.90
2018-08-03T22:00:12.250Z,99.90
2018-08-03T22:03:16.521Z,99.90
2018-08-03T22:06:20.822Z,99.90
2018-08-03T22:09:25.124Z,99.90
2018-08-03T22:12:29.365Z,99.90
2018-08-03T22:15:33.643Z,99.90
2018-08-03T22:18:37.906Z,99.90
2018-08-03T22:21:42.183Z,99.90
2018-08-03T22:24:46.587Z,99.90
2018-08-03T22:27:50.900Z,99.90
2018-08-03T22:30:55.362Z,99.90
2018-08-03T22:33:59.631Z,99.90
2018-08-03T22:37:03.946Z,99.90
2018-08-03T22:40:08.359Z,99.90
2018-08-03T22:43:12.741Z,99.90
2018-08-03T22:46:17.065Z,99.90
2018-08-03T22:49:21.381Z,99.90
2018-08-03T22:52:25.718Z,99.90
2018-08-03T22:55:29.967Z,99.90
2018-08-03T22:58:34.462Z,99.90
2018-08-03T23:01:38.727Z,99.90
2018-08-03T23:04:43.010Z,99.90
2018-08-03T23:07:47.385Z,99.90
2018-08-03T23:10:51.692Z,99.90
2018-08-03T23:13:56.058Z,99.90
2018-08-03T23:17:00.368Z,99.90
2018-08-03T23:20:05.068Z,99.90
2018-08-03T23:26:13.592Z,99.90
2018-08-03T23:29:17.917Z,99.90
2018-08-03T23:35:26.464Z,99.90
2018-08-03T23:41:34.812Z,99.90
2018-08-03T23:44:39.223Z,99.90
2018-08-03T23:47:43.537Z,99.90
2018-08-03T23:50:47.827Z,99.90
2018-08-03T23:53:52.160Z,99.90
2018-08-03T23:56:56.494Z,99.90
